createdAt,value
2023-04-03T00:00:58.444Z,3.89
2023-04-03T00:03:25.443Z,3.96
2023-04-03T00:05:52.343Z,3.81
2023-04-03T00:08:19.333Z,3.77
2023-04-03T00:10:46.482Z,3.53
2023-04-03T00:13:13.396Z,3.49
2023-04-03T00:15:41.178Z,3.63
2023-04-03T00:18:08.750Z,3.50
2023-04-03T00:20:36.343Z,3.47
2023-04-03T00:23:03.806Z,3.38
2023-04-03T00:25:30.832Z,3.32
2023-04-03T00:27:57.553Z,3.31
2023-04-03T00:30:25.650Z,3.24
2023-04-03T00:32:53.639Z,3.30
2023-04-03T00:35:22.316Z,3.26
2023-04-03T00:37:49.498Z,3.27
2023-04-03T00:40:17.328Z,3.11
2023-04-03T00:42:45.061Z,2.90
2023-04-03T00:45:35.173Z,3.04
2023-04-03T00:48:04.949Z,2.77
2023-04-03T00:50:35.150Z,2.86
2023-04-03T00:53:02.648Z,2.86
2023-04-03T00:55:31.251Z,2.77
2023-04-03T00:57:58.246Z,2.72
2023-04-03T01:00:26.691Z,2.77
2023-04-03T01:02:53.988Z,2.74
2023-04-03T01:05:22.040Z,2.76
2023-04-03T01:07:50.948Z,2.56
2023-04-03T01:10:19.371Z,2.46
2023-04-03T01:12:47.856Z,2.49
2023-04-03T01:15:17.748Z,2.49
2023-04-03T01:17:50.095Z,2.38
2023-04-03T01:21:11.592Z,2.51
2023-04-03T01:24:06.165Z,2.54
2023-04-03T01:26:34.421Z,2.44
2023-04-03T01:29:01.726Z,2.50
2023-04-03T01:31:33.448Z,2.28
2023-04-03T01:34:00.661Z,2.30
2023-04-03T01:36:30.098Z,2.30
2023-04-03T01:38:58.234Z,2.22
2023-04-03T01:41:25.016Z,2.27
2023-04-03T01:43:51.791Z,2.29
2023-04-03T01:46:19.547Z,2.17
2023-04-03T01:48:46.751Z,2.15
2023-04-03T01:51:13.889Z,1.99
2023-04-03T01:53:40.665Z,2.06
2023-04-03T01:56:08.160Z,2.09
2023-04-03T01:58:35.001Z,2.16
2023-04-03T02:01:01.916Z,2.21
2023-04-03T02:03:28.683Z,2.04
2023-04-03T02:05:55.455Z,2.01
2023-04-03T02:08:22.624Z,1.99
2023-04-03T02:10:50.710Z,1.91
2023-04-03T02:13:18.118Z,1.94
2023-04-03T02:15:44.811Z,1.94
2023-04-03T02:18:11.679Z,1.83
2023-04-03T02:20:38.589Z,1.94
2023-04-03T02:23:05.533Z,1.96
2023-04-03T02:25:32.611Z,2.03
2023-04-03T02:27:59.522Z,1.94
2023-04-03T02:30:26.768Z,1.89
2023-04-03T02:32:53.739Z,1.81
2023-04-03T02:35:20.841Z,1.81
2023-04-03T02:37:47.612Z,1.94
2023-04-03T02:40:14.737Z,1.90
2023-04-03T02:42:41.502Z,1.82
2023-04-03T02:45:08.986Z,1.91
2023-04-03T02:47:35.771Z,1.91
2023-04-03T02:50:02.580Z,1.91
2023-04-03T02:52:29.409Z,1.90
2023-04-03T02:54:56.288Z,1.85
2023-04-03T02:57:23.143Z,2.00
2023-04-03T02:59:50.242Z,2.10
2023-04-03T03:02:17.178Z,2.07
2023-04-03T03:04:44.232Z,1.91
2023-04-03T03:07:10.959Z,2.01
2023-04-03T03:09:37.795Z,2.02
2023-04-03T03:12:04.948Z,2.01
2023-04-03T03:14:31.931Z,2.07
2023-04-03T03:16:58.879Z,2.05
2023-04-03T03:19:25.919Z,2.02
2023-04-03T03:21:53.376Z,1.89
2023-04-03T03:24:20.331Z,1.95
2023-04-03T03:26:47.268Z,1.93
2023-04-03T03:29:13.999Z,1.98
2023-04-03T03:31:40.704Z,1.98
2023-04-03T03:34:07.516Z,2.08
2023-04-03T03:36:34.257Z,1.87
2023-04-03T03:39:01.147Z,1.86
2023-04-03T03:41:27.959Z,1.65
2023-04-03T03:43:55.294Z,1.72
2023-04-03T03:46:22.070Z,1.71
2023-04-03T03:48:49.173Z,1.79
2023-04-03T03:51:16.615Z,1.78
2023-04-03T03:53:43.396Z,1.83
2023-04-03T03:56:11.032Z,1.70
2023-04-03T03:58:37.856Z,1.72
2023-04-03T04:01:07.033Z,1.68
2023-04-03T04:03:34.091Z,1.77
2023-04-03T04:06:01.178Z,1.83
2023-04-03T04:08:27.984Z,1.83
2023-04-03T04:10:54.755Z,1.76
2023-04-03T04:13:21.617Z,1.67
2023-04-03T04:15:48.321Z,1.84
2023-04-03T04:18:15.084Z,1.73
2023-04-03T04:20:42.454Z,1.65
2023-04-03T04:23:09.217Z,1.70
2023-04-03T04:25:36.118Z,1.74
2023-04-03T04:28:02.973Z,1.75
2023-04-03T04:30:29.873Z,1.75
2023-04-03T04:32:56.705Z,1.66
2023-04-03T04:35:23.478Z,1.69
2023-04-03T04:37:50.328Z,1.67
2023-04-03T04:40:17.422Z,1.68
2023-04-03T04:42:44.926Z,1.60
2023-04-03T04:45:11.904Z,1.70
2023-04-03T04:47:38.702Z,1.64
2023-04-03T04:50:06.294Z,1.50
2023-04-03T04:52:33.278Z,1.59
2023-04-03T04:55:00.079Z,1.65
2023-04-03T04:57:27.286Z,1.70
2023-04-03T04:59:54.031Z,1.51
2023-04-03T05:02:21.086Z,1.65
2023-04-03T05:07:43.011Z,1.57
2023-04-03T05:10:21.835Z,1.53
2023-04-03T05:12:49.842Z,1.56
2023-04-03T05:15:17.132Z,1.46
2023-04-03T05:17:44.592Z,1.34
2023-04-03T05:20:11.968Z,1.33
2023-04-03T05:22:39.312Z,1.44
2023-04-03T05:25:07.444Z,1.40
2023-04-03T05:27:35.761Z,1.32
2023-04-03T05:30:04.402Z,1.29
2023-04-03T05:32:31.173Z,1.37
2023-04-03T05:34:59.997Z,1.33
2023-04-03T05:37:27.604Z,1.37
2023-04-03T05:39:56.058Z,1.38
2023-04-03T05:42:23.921Z,1.41
2023-04-03T05:44:51.614Z,1.47
2023-04-03T05:47:19.920Z,1.40
2023-04-03T05:49:47.147Z,1.42
2023-04-03T05:52:28.046Z,1.42
2023-04-03T05:54:56.291Z,1.30
2023-04-03T05:57:23.644Z,1.41
2023-04-03T05:59:53.104Z,1.32
2023-04-03T06:02:22.686Z,1.52
2023-04-03T06:04:50.152Z,1.47
2023-04-03T06:07:20.919Z,1.49
2023-04-03T06:09:48.597Z,1.38
2023-04-03T06:12:16.090Z,1.46
2023-04-03T06:14:43.729Z,1.58
2023-04-03T06:17:12.072Z,1.48
2023-04-03T06:19:39.150Z,1.54
2023-04-03T06:22:06.129Z,1.51
2023-04-03T06:24:33.148Z,1.54
2023-04-03T06:27:00.352Z,1.47
2023-04-03T06:29:28.068Z,1.55
2023-04-03T06:31:55.807Z,1.58
2023-04-03T06:34:23.138Z,1.59
2023-04-03T06:36:50.211Z,1.64
2023-04-03T06:39:19.320Z,1.66
2023-04-03T06:41:46.568Z,1.60
2023-04-03T06:44:14.638Z,1.74
2023-04-03T06:46:41.752Z,1.68
2023-04-03T06:49:09.126Z,1.75
2023-04-03T06:51:37.733Z,1.76
2023-04-03T06:54:06.064Z,1.80
2023-04-03T06:56:33.938Z,1.77
2023-04-03T06:59:02.367Z,1.69
2023-04-03T07:01:30.633Z,1.74
2023-04-03T07:03:57.787Z,1.68
2023-04-03T07:06:24.570Z,1.62
2023-04-03T07:08:51.785Z,1.52
2023-04-03T07:11:19.348Z,1.71
2023-04-03T07:13:46.239Z,1.70
2023-04-03T07:16:12.993Z,1.72
2023-04-03T07:18:40.068Z,1.76
2023-04-03T07:21:07.640Z,1.72
2023-04-03T07:23:34.860Z,1.89
2023-04-03T07:26:06.308Z,2.13
2023-04-03T07:28:33.646Z,2.35
2023-04-03T07:31:03.294Z,2.61
2023-04-03T07:33:30.909Z,2.76
2023-04-03T07:35:58.076Z,2.59
2023-04-03T07:38:25.756Z,2.74
2023-04-03T07:40:54.248Z,2.72
2023-04-03T07:43:22.627Z,2.85
2023-04-03T07:45:53.705Z,2.97
2023-04-03T07:48:22.527Z,3.04
2023-04-03T07:50:49.661Z,3.19
2023-04-03T07:53:16.984Z,3.10
2023-04-03T07:55:45.059Z,3.03
2023-04-03T07:58:13.551Z,3.10
2023-04-03T08:00:41.298Z,3.07
2023-04-03T08:03:12.737Z,3.25
2023-04-03T08:05:41.998Z,3.40
2023-04-03T08:08:10.156Z,3.20
2023-04-03T08:10:37.169Z,3.18
2023-04-03T08:13:04.777Z,3.05
2023-04-03T08:15:32.853Z,2.86
2023-04-03T08:18:02.214Z,2.77
2023-04-03T08:20:29.721Z,2.84
2023-04-03T08:22:56.560Z,2.56
2023-04-03T08:25:23.660Z,2.77
2023-04-03T08:27:50.821Z,3.09
2023-04-03T08:30:17.915Z,3.39
2023-04-03T08:32:45.685Z,3.70
2023-04-03T08:35:13.486Z,3.72
2023-04-03T08:37:40.950Z,3.94
2023-04-03T08:40:10.173Z,4.30
2023-04-03T08:43:19.491Z,4.22
2023-04-03T08:45:56.970Z,4.20
2023-04-03T08:48:42.703Z,4.19
2023-04-03T08:51:17.749Z,4.17
2023-04-03T08:54:06.994Z,4.16
2023-04-03T08:56:34.825Z,4.24
2023-04-03T08:59:06.982Z,4.58
2023-04-03T09:01:39.989Z,4.61
2023-04-03T09:04:13.461Z,4.68
2023-04-03T09:06:41.200Z,4.55
2023-04-03T09:09:42.555Z,4.78
2023-04-03T09:12:34.031Z,4.41
2023-04-03T09:15:01.097Z,4.25
2023-04-03T09:17:44.634Z,4.11
2023-04-03T09:20:34.698Z,4.02
2023-04-03T09:23:01.910Z,3.78
2023-04-03T09:25:37.345Z,3.86
2023-04-03T09:28:05.735Z,4.18
2023-04-03T09:30:32.748Z,4.42
2023-04-03T09:32:59.975Z,4.51
2023-04-03T09:35:47.503Z,4.59
2023-04-03T09:38:20.822Z,4.79
2023-04-03T09:40:52.641Z,4.88
2023-04-03T09:43:40.087Z,5.07
2023-04-03T09:46:41.145Z,5.04
2023-04-03T09:49:12.303Z,5.12
2023-04-03T09:51:39.371Z,5.36
2023-04-03T09:54:32.726Z,5.52
2023-04-03T09:57:06.432Z,5.74
2023-04-03T09:59:33.745Z,5.43
2023-04-03T10:02:25.700Z,5.15
2023-04-03T10:05:06.219Z,5.02
2023-04-03T10:07:38.458Z,5.08
2023-04-03T10:10:24.051Z,5.17
2023-04-03T10:13:06.108Z,5.29
2023-04-03T10:15:38.242Z,5.63
2023-04-03T10:18:28.999Z,5.38
2023-04-03T10:21:00.664Z,5.00
2023-04-03T10:24:03.859Z,5.11
2023-04-03T10:26:57.256Z,4.91
2023-04-03T10:29:33.192Z,4.86
2023-04-03T10:32:18.442Z,4.82
2023-04-03T10:34:51.688Z,4.80
2023-04-03T10:37:37.898Z,4.90
2023-04-03T10:40:37.373Z,5.43
2023-04-03T10:43:26.967Z,5.75
2023-04-03T10:46:49.890Z,5.89
2023-04-03T10:49:23.610Z,5.54
2023-04-03T10:52:08.279Z,5.63
2023-04-03T10:54:43.718Z,5.60
2023-04-03T10:57:13.450Z,5.38
2023-04-03T11:03:05.761Z,5.59
2023-04-03T11:05:45.234Z,5.87
2023-04-03T11:08:39.408Z,5.98
2023-04-03T11:11:32.124Z,6.04
2023-04-03T11:14:04.762Z,5.98
2023-04-03T11:16:43.581Z,6.14
2023-04-03T11:19:25.427Z,6.39
2023-04-03T11:22:27.802Z,6.28
2023-04-03T11:25:27.019Z,6.12
2023-04-03T11:28:03.136Z,6.61
2023-04-03T11:30:53.778Z,6.54
2023-04-03T11:33:55.446Z,6.46
2023-04-03T11:36:35.566Z,6.32
2023-04-03T11:39:17.402Z,6.34
2023-04-03T11:41:44.441Z,6.05
2023-04-03T11:44:30.097Z,5.69
2023-04-03T11:46:59.025Z,5.90
2023-04-03T11:50:01.580Z,6.18
2023-04-03T11:53:10.846Z,5.93
2023-04-03T11:55:50.283Z,5.91
2023-04-03T11:58:23.217Z,6.02
2023-04-03T12:01:08.091Z,6.12
2023-04-03T12:04:09.035Z,5.92
2023-04-03T12:06:39.009Z,6.00
2023-04-03T12:09:25.197Z,6.01
2023-04-03T12:11:53.203Z,5.79
2023-04-03T12:14:24.185Z,5.65
2023-04-03T12:16:53.246Z,5.57
2023-04-03T12:19:44.749Z,5.65
2023-04-03T12:22:22.189Z,5.62
2023-04-03T12:24:53.852Z,5.30
2023-04-03T12:27:28.378Z,5.34
2023-04-03T12:30:25.210Z,5.33
2023-04-03T12:33:19.699Z,5.26
2023-04-03T12:36:06.268Z,5.34
2023-04-03T12:38:49.490Z,5.22
2023-04-03T12:41:39.379Z,5.30
2023-04-03T12:44:46.660Z,5.79
2023-04-03T12:47:34.730Z,5.94
2023-04-03T12:50:02.816Z,6.27
2023-04-03T12:52:53.054Z,6.13
2023-04-03T12:55:21.571Z,5.97
2023-04-03T12:57:48.964Z,5.91
2023-04-03T13:00:42.736Z,6.02
2023-04-03T13:03:25.439Z,5.78
2023-04-03T13:05:52.282Z,5.98
2023-04-03T13:08:21.287Z,5.88
2023-04-03T13:10:57.468Z,5.70
2023-04-03T13:13:24.519Z,5.57
2023-04-03T13:15:52.838Z,5.76
2023-04-03T13:18:35.016Z,5.81
2023-04-03T13:21:24.729Z,5.86
2023-04-03T13:24:03.614Z,6.12
2023-04-03T13:26:39.251Z,6.07
2023-04-03T13:29:24.240Z,6.35
2023-04-03T13:31:57.942Z,6.45
2023-04-03T13:34:27.790Z,6.47
2023-04-03T13:36:59.732Z,6.67
2023-04-03T13:39:30.516Z,6.49
2023-04-03T13:42:04.222Z,6.77
2023-04-03T13:44:35.690Z,6.81
2023-04-03T13:47:12.272Z,6.82
2023-04-03T13:49:42.417Z,6.92
2023-04-03T13:52:52.093Z,7.03
2023-04-03T13:55:25.323Z,6.98
2023-04-03T13:58:00.476Z,6.89
2023-04-03T14:00:40.521Z,6.95
2023-04-03T14:03:22.698Z,6.98
2023-04-03T14:05:50.332Z,7.31
2023-04-03T14:08:19.379Z,7.19
2023-04-03T14:10:48.775Z,7.21
2023-04-03T14:13:17.371Z,7.43
2023-04-03T14:15:45.220Z,7.24
2023-04-03T14:18:13.640Z,7.20
2023-04-03T14:20:41.439Z,7.31
2023-04-03T14:23:10.286Z,7.29
2023-04-03T14:25:40.955Z,7.11
2023-04-03T14:28:18.219Z,6.98
2023-04-03T14:30:47.137Z,6.88
2023-04-03T14:33:17.605Z,6.45
2023-04-03T14:35:45.240Z,6.35
2023-04-03T14:38:30.107Z,6.54
2023-04-03T14:41:01.046Z,6.77
2023-04-03T14:43:34.062Z,6.90
2023-04-03T14:46:01.101Z,6.98
2023-04-03T14:48:29.246Z,7.01
2023-04-03T14:51:05.723Z,7.01
2023-04-03T14:53:39.208Z,7.05
2023-04-03T14:56:15.227Z,7.17
2023-04-03T14:58:56.191Z,7.03
2023-04-03T15:01:27.423Z,7.19
2023-04-03T15:03:54.616Z,7.19
2023-04-03T15:06:32.889Z,7.25
2023-04-03T15:09:01.998Z,7.26
2023-04-03T15:11:29.437Z,7.09
2023-04-03T15:13:57.374Z,6.81
2023-04-03T15:16:28.797Z,6.93
2023-04-03T15:18:56.308Z,6.86
2023-04-03T15:21:23.288Z,6.65
2023-04-03T15:23:50.489Z,6.53
2023-04-03T15:26:17.725Z,6.62
2023-04-03T15:28:45.354Z,6.81
2023-04-03T15:31:15.886Z,6.80
2023-04-03T15:33:43.091Z,6.50
2023-04-03T15:36:29.043Z,6.53
2023-04-03T15:38:57.745Z,6.33
2023-04-03T15:41:25.335Z,6.33
2023-04-03T15:43:52.578Z,6.61
2023-04-03T15:46:20.191Z,6.66
2023-04-03T15:48:47.723Z,6.91
2023-04-03T15:51:15.276Z,6.86
2023-04-03T15:53:42.357Z,6.69
2023-04-03T15:56:10.876Z,6.71
2023-04-03T15:58:41.654Z,6.74
2023-04-03T16:01:12.142Z,6.73
2023-04-03T16:03:46.758Z,6.60
2023-04-03T16:06:15.761Z,6.38
2023-04-03T16:08:43.335Z,6.46
2023-04-03T16:11:11.006Z,6.66
2023-04-03T16:13:38.354Z,6.58
2023-04-03T16:18:59.965Z,6.24
2023-04-03T16:21:28.860Z,6.18
2023-04-03T16:23:58.799Z,5.78
2023-04-03T16:26:26.597Z,5.91
2023-04-03T16:28:54.553Z,5.80
2023-04-03T16:31:22.795Z,5.81
2023-04-03T16:33:49.611Z,5.73
2023-04-03T16:36:16.868Z,5.70
2023-04-03T16:38:44.166Z,5.67
2023-04-03T16:41:11.187Z,5.69
2023-04-03T16:43:38.257Z,5.72
2023-04-03T16:46:05.855Z,5.56
2023-04-03T16:48:33.328Z,5.72
2023-04-03T16:51:01.002Z,5.88
2023-04-03T16:53:28.396Z,5.73
2023-04-03T16:55:56.202Z,5.74
2023-04-03T16:58:24.457Z,5.61
2023-04-03T17:00:52.298Z,5.32
2023-04-03T17:03:19.673Z,5.30
2023-04-03T17:05:50.245Z,5.23
2023-04-03T17:08:19.343Z,5.39
2023-04-03T17:10:47.911Z,5.34
2023-04-03T17:13:15.970Z,5.40
2023-04-03T17:15:45.216Z,5.21
2023-04-03T17:18:12.441Z,5.39
2023-04-03T17:20:40.395Z,5.36
2023-04-03T17:23:07.681Z,5.25
2023-04-03T17:25:34.603Z,5.20
2023-04-03T17:28:01.839Z,5.04
2023-04-03T17:30:29.081Z,5.01
2023-04-03T17:32:56.219Z,5.11
2023-04-03T17:35:23.158Z,5.17
2023-04-03T17:37:50.664Z,5.12
2023-04-03T17:40:19.013Z,5.22
2023-04-03T17:42:46.453Z,5.26
2023-04-03T17:45:13.537Z,5.05
2023-04-03T17:47:40.949Z,5.09
2023-04-03T17:50:08.440Z,4.86
2023-04-03T17:52:35.189Z,4.89
2023-04-03T17:55:01.945Z,5.12
2023-04-03T17:57:31.282Z,5.09
2023-04-03T17:59:58.190Z,5.05
2023-04-03T18:02:25.053Z,5.04
2023-04-03T18:04:53.642Z,5.07
2023-04-03T18:07:21.259Z,5.02
2023-04-03T18:09:49.966Z,5.05
2023-04-03T18:12:16.820Z,4.91
2023-04-03T18:14:45.218Z,4.80
2023-04-03T18:17:12.649Z,4.75
2023-04-03T18:19:39.771Z,4.77
2023-04-03T18:22:13.987Z,4.81
2023-04-03T18:24:41.535Z,4.87
2023-04-03T18:27:16.143Z,4.86
2023-04-03T18:29:45.716Z,4.73
2023-04-03T18:32:15.264Z,4.74
2023-04-03T18:34:42.595Z,4.76
2023-04-03T18:37:09.636Z,4.77
2023-04-03T18:39:37.124Z,4.74
2023-04-03T18:42:07.988Z,4.89
2023-04-03T18:44:35.648Z,4.75
2023-04-03T18:47:02.515Z,4.64
2023-04-03T18:49:30.401Z,4.69
2023-04-03T18:51:57.377Z,4.65
2023-04-03T18:54:24.228Z,4.66
2023-04-03T18:56:50.947Z,4.57
2023-04-03T18:59:17.793Z,4.60
2023-04-03T19:01:44.641Z,4.62
2023-04-03T19:04:11.961Z,4.66
2023-04-03T19:06:38.846Z,4.67
2023-04-03T19:09:06.933Z,4.58
2023-04-03T19:11:37.396Z,4.50
2023-04-03T19:14:15.246Z,4.43
2023-04-03T19:16:44.953Z,4.55
2023-04-03T19:19:12.398Z,4.43
2023-04-03T19:21:41.712Z,4.38
2023-04-03T19:24:12.496Z,4.41
2023-04-03T19:26:39.957Z,4.34
2023-04-03T19:29:07.305Z,4.30
2023-04-03T19:31:35.320Z,4.37
2023-04-03T19:34:04.051Z,4.17
2023-04-03T19:36:31.676Z,4.32
2023-04-03T19:38:58.522Z,4.41
2023-04-03T19:41:28.613Z,4.39
2023-04-03T19:43:56.546Z,4.40
2023-04-03T19:46:28.085Z,4.36
2023-04-03T19:48:55.181Z,4.42
2023-04-03T19:51:22.186Z,4.39
2023-04-03T19:53:49.120Z,4.35
2023-04-03T19:56:18.849Z,4.45
2023-04-03T19:58:46.372Z,4.36
2023-04-03T20:01:13.292Z,4.32
2023-04-03T20:03:40.220Z,4.39
2023-04-03T20:06:07.024Z,4.36
2023-04-03T20:08:34.050Z,4.22
2023-04-03T20:11:01.094Z,4.19
2023-04-03T20:13:28.176Z,4.27
2023-04-03T20:15:55.365Z,4.28
2023-04-03T20:18:22.572Z,4.23
2023-04-03T20:21:00.465Z,4.28
2023-04-03T20:23:28.347Z,4.33
2023-04-03T20:26:08.546Z,4.34
2023-04-03T20:28:36.979Z,4.36
2023-04-03T20:31:04.094Z,4.19
2023-04-03T20:33:30.960Z,4.22
2023-04-03T20:35:58.350Z,4.24
2023-04-03T20:38:25.828Z,4.17
2023-04-03T20:40:52.797Z,4.17
2023-04-03T20:43:22.077Z,4.09
2023-04-03T20:45:49.661Z,4.11
2023-04-03T20:48:18.663Z,4.11
2023-04-03T20:50:46.873Z,4.06
2023-04-03T20:53:15.290Z,3.98
2023-04-03T20:55:42.724Z,4.12
2023-04-03T20:58:09.646Z,4.18
2023-04-03T21:00:38.278Z,4.20
2023-04-03T21:03:06.331Z,4.12
2023-04-03T21:05:35.400Z,3.96
2023-04-03T21:08:40.424Z,3.94
2023-04-03T21:11:45.176Z,3.81
2023-04-03T21:14:49.807Z,3.85
2023-04-03T21:17:16.716Z,3.74
2023-04-03T21:19:46.796Z,3.76
2023-04-03T21:22:14.314Z,3.74
2023-04-03T21:24:41.388Z,3.81
2023-04-03T21:27:08.764Z,3.78
2023-04-03T21:29:35.628Z,3.83
2023-04-03T21:32:02.569Z,3.88
2023-04-03T21:34:30.514Z,3.98
2023-04-03T21:37:02.083Z,3.69
2023-04-03T21:39:29.390Z,3.76
2023-04-03T21:41:56.292Z,3.63
2023-04-03T21:44:23.589Z,3.73
2023-04-03T21:46:54.786Z,3.70
2023-04-03T21:49:22.783Z,3.69
2023-04-03T21:51:51.984Z,3.65
2023-04-03T21:54:19.526Z,3.59
2023-04-03T21:56:48.548Z,3.58
2023-04-03T21:59:16.137Z,3.59
2023-04-03T22:01:43.700Z,3.62
2023-04-03T22:04:11.058Z,3.54
2023-04-03T22:06:38.340Z,3.69
2023-04-03T22:09:05.242Z,3.75
2023-04-03T22:11:32.563Z,3.65
2023-04-03T22:14:00.144Z,3.45
2023-04-03T22:16:27.887Z,3.49
2023-04-03T22:18:55.279Z,3.62
2023-04-03T22:21:22.569Z,3.63
2023-04-03T22:23:49.549Z,3.59
2023-04-03T22:26:16.763Z,3.50
2023-04-03T22:28:47.203Z,3.54
2023-04-03T22:31:15.113Z,3.40
2023-04-03T22:33:43.612Z,3.47
2023-04-03T22:36:11.526Z,3.46
2023-04-03T22:38:39.173Z,3.56
2023-04-03T22:41:08.009Z,3.65
2023-04-03T22:43:36.614Z,3.63
2023-04-03T22:46:05.009Z,3.62
2023-04-03T22:48:32.102Z,3.61
2023-04-03T22:51:00.246Z,3.53
2023-04-03T22:53:28.086Z,3.62
2023-04-03T22:55:59.119Z,3.61
2023-04-03T22:58:26.827Z,3.45
2023-04-03T23:00:54.598Z,3.57
2023-04-03T23:03:23.724Z,3.39
2023-04-03T23:05:52.132Z,3.46
2023-04-03T23:08:19.622Z,3.39
2023-04-03T23:10:46.541Z,3.57
2023-04-03T23:13:13.685Z,3.55
2023-04-03T23:15:40.557Z,3.53
2023-04-03T23:18:07.490Z,3.42
2023-04-03T23:20:34.195Z,3.54
2023-04-03T23:23:00.950Z,3.51
2023-04-03T23:25:28.111Z,3.34
2023-04-03T23:27:55.095Z,3.34
2023-04-03T23:30:22.023Z,3.45
2023-04-03T23:32:48.845Z,3.40
2023-04-03T23:35:15.765Z,3.43
2023-04-03T23:37:43.086Z,3.46
2023-04-03T23:40:10.635Z,3.40
2023-04-03T23:42:37.722Z,3.39
2023-04-03T23:45:04.989Z,3.37
2023-04-03T23:47:31.753Z,3.38
2023-04-03T23:49:58.775Z,3.33
2023-04-03T23:52:25.554Z,3.28
2023-04-03T23:54:53.023Z,3.35
2023-04-03T23:57:19.817Z,3.31
2023-04-03T23:59:46.651Z,3.31
